Time;durP1;ratioP1;P1;durP2;ratioP2;P2;SDS_P1;SDS_P2;PMS_P1;PMS_P2;Temp;Humidity;BMP_temperature;BMP_pressure;BME280_temperature;BME280_humidity;BME280_pressure;Samples;Min_cycle;Max_cycle;Signal;HPM_P1;HPM_P2
2022/10/04 00:02:02;;;;;;;;;;;12.10;92.60;;;;;;5077954;28;19973;-70
2022/10/04 00:04:40;;;;;;;;;;;12.10;92.70;;;;;;5067558;28;20654;-70
2022/10/04 00:07:07;;;;;;;;;;;12.10;92.70;;;;;;5080843;28;19939;-70
2022/10/04 00:09:50;;;;;;;;;;;12.10;92.70;;;;;;5085501;28;19919;-70
2022/10/04 00:12:27;;;;;;;;;;;12.10;92.70;;;;;;5081662;28;19916;-70
2022/10/04 00:14:56;;;;;;;;;;;12.10;92.60;;;;;;5083684;28;20572;-70
2022/10/04 00:17:26;;;;;;;;;;;12.10;92.70;;;;;;5083176;28;20015;-70
2022/10/04 00:19:52;;;;;;;;;;;12.00;92.60;;;;;;5086036;28;19912;-70
2022/10/04 00:22:19;;;;;;;;;;;12.00;92.60;;;;;;5081709;28;20010;-70
2022/10/04 00:25:12;;;;;;;;;;;12.10;92.70;;;;;;5085569;28;20006;-70
2022/10/04 00:27:38;;;;;;;;;;;12.00;92.60;;;;;;5074524;28;20523;-70
2022/10/04 00:30:04;;;;;;;;;;;12.10;92.70;;;;;;5067077;28;19920;-70
2022/10/04 00:32:39;;;;;;;;;;;12.00;92.70;;;;;;5080624;28;20270;-70
2022/10/04 00:35:23;;;;;;;;;;;12.00;92.60;;;;;;5085261;28;19927;-70
2022/10/04 00:38:11;;;;;;;;;;;12.00;92.70;;;;;;5082349;28;19916;-70
2022/10/04 00:40:40;;;;;;;;;;;12.00;92.70;;;;;;5069373;28;19961;-70
2022/10/04 00:43:12;;;;;;;;;;;11.90;92.60;;;;;;5081622;28;19923;-70
2022/10/04 00:45:46;;;;;;;;;;;11.90;92.70;;;;;;5085290;28;19912;-70
2022/10/04 00:48:30;;;;;;;;;;;11.90;92.70;;;;;;5081883;28;19981;-70
2022/10/04 00:51:14;;;;;;;;;;;12.00;92.70;;;;;;5085453;28;19916;-70
2022/10/04 00:53:39;;;;;;;;;;;11.90;92.80;;;;;;5060069;28;19916;-70
2022/10/04 00:56:07;;;;;;;;;;;11.90;92.80;;;;;;5085380;28;20061;-71
2022/10/04 00:58:37;;;;;;;;;;;11.90;92.80;;;;;;5081202;28;20030;-70
2022/10/04 01:01:03;;;;;;;;;;;11.90;92.70;;;;;;5084087;28;19908;-70
2022/10/04 01:03:32;;;;;;;;;;;11.90;92.80;;;;;;5078479;28;19916;-70
2022/10/04 01:05:59;;;;;;;;;;;11.90;92.80;;;;;;5082313;28;20515;-70
2022/10/04 01:08:31;;;;;;;;;;;11.90;92.80;;;;;;5078373;28;19969;-70
2022/10/04 01:11:02;;;;;;;;;;;11.90;92.80;;;;;;5080461;28;19916;-70
2022/10/04 01:13:37;;;;;;;;;;;11.90;92.80;;;;;;5082070;28;19916;-70
2022/10/04 01:16:08;;;;;;;;;;;11.80;92.80;;;;;;5084428;28;20288;-70
2022/10/04 01:18:34;;;;;;;;;;;11.90;92.80;;;;;;5081784;28;19962;-70
2022/10/04 01:21:07;;;;;;;;;;;11.90;92.80;;;;;;5084937;28;19951;-70
2022/10/04 01:23:41;;;;;;;;;;;11.80;92.80;;;;;;5078943;28;19919;-70
2022/10/04 01:26:22;;;;;;;;;;;11.80;92.90;;;;;;5084757;28;19919;-70
2022/10/04 01:28:48;;;;;;;;;;;11.80;92.80;;;;;;5081782;28;20586;-70
2022/10/04 01:31:14;;;;;;;;;;;11.80;92.80;;;;;;5081300;28;19921;-70
2022/10/04 01:33:40;;;;;;;;;;;11.80;92.80;;;;;;5083754;28;19946;-70
2022/10/04 01:36:05;;;;;;;;;;;11.80;92.90;;;;;;5082068;28;20004;-70
2022/10/04 01:38:31;;;;;;;;;;;11.80;92.80;;;;;;5084529;28;20364;-70
2022/10/04 01:40:59;;;;;;;;;;;11.80;92.90;;;;;;5082208;28;20348;-70
2022/10/04 01:43:30;;;;;;;;;;;11.80;92.90;;;;;;5084305;28;19912;-70
2022/10/04 01:46:01;;;;;;;;;;;11.80;92.80;;;;;;5081804;28;19916;-70
2022/10/04 01:48:31;;;;;;;;;;;11.70;92.80;;;;;;5083393;28;20049;-70
2022/10/04 01:51:03;;;;;;;;;;;11.80;92.90;;;;;;5081054;28;20010;-70
2022/10/04 01:53:30;;;;;;;;;;;11.70;92.80;;;;;;5089331;28;19916;-70
2022/10/04 01:56:04;;;;;;;;;;;11.80;92.90;;;;;;5086040;28;19964;-70
2022/10/04 01:58:32;;;;;;;;;;;11.70;92.90;;;;;;5084499;28;19916;-70
2022/10/04 02:01:06;;;;;;;;;;;11.70;92.90;;;;;;5082246;28;19999;-70
2022/10/04 02:03:34;;;;;;;;;;;11.70;92.90;;;;;;5084589;28;19916;-70
2022/10/04 02:06:01;;;;;;;;;;;11.70;92.90;;;;;;5085878;28;20011;-69
2022/10/04 02:08:32;;;;;;;;;;;11.70;92.90;;;;;;5087143;28;19912;-70
2022/10/04 02:10:59;;;;;;;;;;;11.70;92.90;;;;;;5084957;28;20750;-70
2022/10/04 02:13:28;;;;;;;;;;;11.70;92.90;;;;;;5084375;28;19975;-70
2022/10/04 02:15:54;;;;;;;;;;;11.70;92.90;;;;;;5083177;28;19955;-70
2022/10/04 02:18:20;;;;;;;;;;;11.70;92.90;;;;;;5082989;28;19908;-71
2022/10/04 02:20:47;;;;;;;;;;;11.70;92.90;;;;;;5078828;28;19924;-70
2022/10/04 02:23:15;;;;;;;;;;;11.70;92.90;;;;;;5065413;28;20017;-69
2022/10/04 02:25:40;;;;;;;;;;;11.70;92.90;;;;;;5081487;28;19912;-70
2022/10/04 02:28:09;;;;;;;;;;;11.70;92.90;;;;;;5077294;28;19939;-70
2022/10/04 02:30:40;;;;;;;;;;;11.70;92.90;;;;;;5087423;28;20364;-70
2022/10/04 02:33:05;;;;;;;;;;;11.70;92.90;;;;;;5081255;28;19919;-70
2022/10/04 02:35:43;;;;;;;;;;;11.60;92.90;;;;;;5087343;28;19911;-70
2022/10/04 02:38:12;;;;;;;;;;;11.60;92.90;;;;;;5084790;28;19916;-70
2022/10/04 02:40:47;;;;;;;;;;;11.60;92.90;;;;;;5087411;28;19999;-69
2022/10/04 02:43:18;;;;;;;;;;;11.60;92.90;;;;;;5082166;28;19969;-71
2022/10/04 02:45:44;;;;;;;;;;;11.60;92.90;;;;;;5086759;28;19993;-70
2022/10/04 02:48:28;;;;;;;;;;;11.60;92.90;;;;;;5065953;28;19916;-70
2022/10/04 02:50:55;;;;;;;;;;;11.60;92.90;;;;;;5086973;28;19989;-70
2022/10/04 02:53:25;;;;;;;;;;;11.60;93.00;;;;;;5083801;28;19951;-70
2022/10/04 02:55:51;;;;;;;;;;;11.60;92.90;;;;;;5087210;28;19912;-70
2022/10/04 02:58:18;;;;;;;;;;;11.60;92.90;;;;;;5066265;28;19913;-70
2022/10/04 03:00:51;;;;;;;;;;;11.60;92.90;;;;;;5085157;28;19915;-70
2022/10/04 03:03:26;;;;;;;;;;;11.60;92.90;;;;;;5062341;28;19922;-70
2022/10/04 03:05:54;;;;;;;;;;;11.60;92.90;;;;;;5081542;28;20046;-70
2022/10/04 03:08:20;;;;;;;;;;;11.60;92.90;;;;;;5079869;28;19923;-70
2022/10/04 03:10:46;;;;;;;;;;;11.60;92.90;;;;;;5084789;28;20434;-70
2022/10/04 03:13:12;;;;;;;;;;;11.60;93.00;;;;;;5080421;28;19916;-70
2022/10/04 03:15:38;;;;;;;;;;;11.60;92.90;;;;;;5084684;28;20491;-70
2022/10/04 03:18:04;;;;;;;;;;;11.60;92.90;;;;;;5082489;28;19916;-70
2022/10/04 03:20:29;;;;;;;;;;;11.60;93.00;;;;;;5086697;28;19912;-70
2022/10/04 03:22:55;;;;;;;;;;;11.60;93.00;;;;;;5084443;28;19999;-70
2022/10/04 03:25:25;;;;;;;;;;;11.60;92.90;;;;;;5065986;28;20007;-69
2022/10/04 03:27:50;;;;;;;;;;;11.60;93.00;;;;;;5086202;28;19919;-70
2022/10/04 03:30:19;;;;;;;;;;;11.50;92.90;;;;;;5084106;28;19920;-70
2022/10/04 03:32:44;;;;;;;;;;;11.50;93.00;;;;;;5084892;28;19920;-70
2022/10/04 03:35:25;;;;;;;;;;;11.60;93.00;;;;;;5083765;28;19922;-70
2022/10/04 03:37:51;;;;;;;;;;;11.60;93.00;;;;;;5084460;28;19966;-70
2022/10/04 03:40:17;;;;;;;;;;;11.60;93.00;;;;;;5081248;28;19916;-70
2022/10/04 03:42:44;;;;;;;;;;;11.60;93.00;;;;;;5065080;28;20339;-70
2022/10/04 03:45:14;;;;;;;;;;;11.60;93.00;;;;;;5084116;28;19947;-70
2022/10/04 03:47:42;;;;;;;;;;;11.50;93.00;;;;;;5084492;28;20605;-70
2022/10/04 03:50:25;;;;;;;;;;;11.60;93.00;;;;;;5082130;28;20280;-70
2022/10/04 03:52:55;;;;;;;;;;;11.50;93.00;;;;;;5082636;28;19912;-70
2022/10/04 03:55:24;;;;;;;;;;;11.50;93.00;;;;;;5080015;28;19916;-70
2022/10/04 03:57:50;;;;;;;;;;;11.50;93.00;;;;;;5084915;28;19957;-70
2022/10/04 04:00:17;;;;;;;;;;;11.50;93.10;;;;;;5082544;28;19923;-70
2022/10/04 04:02:48;;;;;;;;;;;11.50;93.10;;;;;;5080046;28;19913;-70
2022/10/04 04:05:31;;;;;;;;;;;11.50;93.10;;;;;;5082971;28;19916;-70
2022/10/04 04:08:05;;;;;;;;;;;11.50;93.10;;;;;;5080007;28;19912;-70
2022/10/04 04:10:33;;;;;;;;;;;11.50;93.10;;;;;;5083111;28;19922;-70
2022/10/04 04:13:18;;;;;;;;;;;11.50;93.40;;;;;;5082339;28;19912;-70
2022/10/04 04:15:44;;;;;;;;;;;11.50;93.10;;;;;;5081540;28;20363;-70
2022/10/04 04:18:18;;;;;;;;;;;11.40;93.10;;;;;;5083035;28;19918;-70
2022/10/04 04:20:44;;;;;;;;;;;11.50;93.10;;;;;;5083083;28;19923;-70
2022/10/04 04:23:12;;;;;;;;;;;11.40;93.10;;;;;;5084547;28;19916;-69
2022/10/04 04:25:40;;;;;;;;;;;11.40;93.10;;;;;;5082490;28;19923;-69
2022/10/04 04:28:14;;;;;;;;;;;11.40;93.10;;;;;;5084304;28;19939;-69
2022/10/04 04:30:43;;;;;;;;;;;11.40;93.10;;;;;;5082864;28;19923;-70
2022/10/04 04:33:15;;;;;;;;;;;11.40;93.10;;;;;;5079430;28;19916;-70
2022/10/04 04:35:40;;;;;;;;;;;11.30;93.10;;;;;;5079382;28;19912;-70
2022/10/04 04:38:15;;;;;;;;;;;11.40;93.10;;;;;;5081612;28;19916;-70
2022/10/04 04:40:41;;;;;;;;;;;11.40;93.10;;;;;;5082583;28;20268;-70
2022/10/04 04:43:12;;;;;;;;;;;11.30;93.10;;;;;;5080529;28;19923;-70
2022/10/04 04:45:37;;;;;;;;;;;11.30;93.10;;;;;;5084070;28;19919;-70
2022/10/04 04:48:04;;;;;;;;;;;11.30;93.10;;;;;;5079762;28;19916;-70
2022/10/04 04:50:35;;;;;;;;;;;11.30;93.10;;;;;;5081273;28;19920;-70
2022/10/04 04:53:05;;;;;;;;;;;11.30;93.10;;;;;;5080903;28;19919;-70
2022/10/04 04:55:36;;;;;;;;;;;11.30;93.10;;;;;;5083761;28;20397;-71
2022/10/04 04:58:02;;;;;;;;;;;11.30;93.10;;;;;;5080973;28;19923;-71
2022/10/04 05:00:29;;;;;;;;;;;11.30;93.10;;;;;;5081848;28;19963;-70
2022/10/04 05:02:56;;;;;;;;;;;11.30;93.10;;;;;;5081249;28;19927;-70
2022/10/04 05:05:23;;;;;;;;;;;11.20;93.40;;;;;;5085139;28;20011;-71
2022/10/04 05:07:49;;;;;;;;;;;11.20;93.10;;;;;;5081075;28;19924;-70
2022/10/04 05:10:33;;;;;;;;;;;11.20;93.10;;;;;;5084362;28;19935;-70
2022/10/04 05:13:00;;;;;;;;;;;11.20;93.10;;;;;;5081495;28;19998;-70
2022/10/04 05:15:26;;;;;;;;;;;11.20;93.10;;;;;;5084162;28;19982;-70
2022/10/04 05:17:52;;;;;;;;;;;11.30;93.10;;;;;;5082066;28;19918;-70
2022/10/04 05:20:18;;;;;;;;;;;11.30;93.10;;;;;;5085091;28;19912;-70
2022/10/04 05:22:45;;;;;;;;;;;11.20;93.10;;;;;;5081618;28;19962;-70
2022/10/04 05:25:19;;;;;;;;;;;11.20;93.10;;;;;;5083745;28;19916;-70
2022/10/04 05:27:45;;;;;;;;;;;11.20;93.10;;;;;;5084027;28;20735;-70
2022/10/04 05:30:23;;;;;;;;;;;11.20;93.00;;;;;;5087243;28;20022;-71
2022/10/04 05:32:48;;;;;;;;;;;11.20;93.10;;;;;;5087295;28;19919;-70
2022/10/04 05:35:15;;;;;;;;;;;11.30;93.10;;;;;;5086530;28;19920;-70
2022/10/04 05:37:47;;;;;;;;;;;11.30;93.10;;;;;;5086646;28;20293;-70
2022/10/04 05:40:12;;;;;;;;;;;11.20;93.00;;;;;;5086290;28;19916;-71
2022/10/04 05:42:40;;;;;;;;;;;11.20;93.10;;;;;;5085405;28;19977;-70
2022/10/04 05:45:19;;;;;;;;;;;11.20;93.10;;;;;;5085728;28;19916;-71
2022/10/04 05:47:49;;;;;;;;;;;11.20;93.10;;;;;;5086689;28;19986;-70
2022/10/04 05:50:24;;;;;;;;;;;11.30;93.10;;;;;;5067788;28;19928;-70
2022/10/04 05:52:50;;;;;;;;;;;11.20;93.10;;;;;;5084512;28;19919;-71
2022/10/04 05:55:16;;;;;;;;;;;11.20;93.10;;;;;;5086060;28;19920;-70
2022/10/04 05:57:42;;;;;;;;;;;11.20;93.10;;;;;;5087500;28;19965;-70
2022/10/04 06:00:15;;;;;;;;;;;11.20;93.10;;;;;;5085174;28;19932;-70
2022/10/04 06:02:59;;;;;;;;;;;11.20;93.10;;;;;;5087033;28;19912;-70
2022/10/04 06:05:39;;;;;;;;;;;11.20;93.10;;;;;;5083192;28;19924;-70
2022/10/04 06:08:15;;;;;;;;;;;11.20;93.10;;;;;;5085057;28;19938;-70
2022/10/04 06:10:52;;;;;;;;;;;11.20;93.10;;;;;;5085201;28;19924;-70
2022/10/04 06:13:36;;;;;;;;;;;11.20;93.10;;;;;;5085579;28;19908;-70
2022/10/04 06:16:26;;;;;;;;;;;11.20;93.10;;;;;;5085202;28;20341;-70
2022/10/04 06:19:09;;;;;;;;;;;11.20;93.00;;;;;;5087688;28;19912;-71
2022/10/04 06:21:35;;;;;;;;;;;11.20;93.00;;;;;;5084747;28;19923;-70
2022/10/04 06:24:02;;;;;;;;;;;11.20;93.00;;;;;;5085754;28;19908;-71
2022/10/04 06:26:39;;;;;;;;;;;11.20;93.00;;;;;;5084963;28;20407;-70
2022/10/04 06:29:08;;;;;;;;;;;11.30;93.00;;;;;;5087401;28;20772;-70
2022/10/04 06:31:54;;;;;;;;;;;11.20;93.00;;;;;;5082796;28;20502;-70
2022/10/04 06:34:35;;;;;;;;;;;11.20;93.00;;;;;;5085212;28;20444;-70
2022/10/04 06:37:00;;;;;;;;;;;11.20;93.00;;;;;;5080358;28;19942;-70
2022/10/04 06:39:26;;;;;;;;;;;11.30;93.00;;;;;;5085699;28;19916;-70
2022/10/04 06:42:00;;;;;;;;;;;11.20;92.90;;;;;;5082178;28;19943;-70
2022/10/04 06:44:27;;;;;;;;;;;11.30;93.00;;;;;;5086265;28;19912;-70
2022/10/04 06:47:09;;;;;;;;;;;11.20;93.00;;;;;;5082452;28;19923;-71
2022/10/04 06:49:44;;;;;;;;;;;11.30;92.90;;;;;;5086675;28;19926;-70
2022/10/04 06:52:19;;;;;;;;;;;11.30;92.90;;;;;;5062893;28;19916;-71
2022/10/04 06:54:44;;;;;;;;;;;11.30;92.90;;;;;;5086570;28;19920;-70
2022/10/04 06:57:30;;;;;;;;;;;11.30;92.90;;;;;;5083525;28;20372;-71
2022/10/04 07:00:14;;;;;;;;;;;11.30;92.90;;;;;;5083341;28;19916;-70
2022/10/04 07:02:48;;;;;;;;;;;11.30;92.90;;;;;;5081579;28;19931;-70
2022/10/04 07:05:13;;;;;;;;;;;11.40;92.90;;;;;;5083814;28;19916;-70
2022/10/04 07:07:43;;;;;;;;;;;11.40;92.80;;;;;;5084348;28;20014;-70
2022/10/04 07:10:20;;;;;;;;;;;11.40;92.80;;;;;;5086525;28;19916;-70
2022/10/04 07:13:06;;;;;;;;;;;11.40;92.80;;;;;;5080657;28;19916;-71
2022/10/04 07:15:47;;;;;;;;;;;11.50;92.80;;;;;;5067231;28;19926;-70
2022/10/04 07:18:15;;;;;;;;;;;11.50;92.70;;;;;;5082294;28;20463;-70
2022/10/04 07:20:40;;;;;;;;;;;11.50;92.70;;;;;;5085560;28;19957;-70
2022/10/04 07:23:15;;;;;;;;;;;11.50;92.70;;;;;;5083014;28;20378;-70
2022/10/04 07:25:46;;;;;;;;;;;11.50;92.70;;;;;;5086460;28;19919;-70
2022/10/04 07:31:11;;;;;;;;;;;11.50;92.60;;;;;;5083555;28;19975;-70
2022/10/04 07:33:44;;;;;;;;;;;11.60;92.60;;;;;;5063184;28;19916;-70
2022/10/04 07:36:11;;;;;;;;;;;11.60;92.60;;;;;;5085066;28;20448;-70
2022/10/04 07:38:41;;;;;;;;;;;11.60;92.50;;;;;;5081936;28;19923;-70
2022/10/04 07:41:17;;;;;;;;;;;11.70;92.50;;;;;;5080111;28;19912;-70
2022/10/04 07:43:50;;;;;;;;;;;11.70;92.50;;;;;;5081693;28;19919;-70
2022/10/04 07:46:19;;;;;;;;;;;11.70;92.50;;;;;;5086266;28;19908;-70
2022/10/04 07:48:48;;;;;;;;;;;11.80;92.50;;;;;;5082110;28;19920;-70
2022/10/04 07:51:27;;;;;;;;;;;11.80;92.40;;;;;;5081698;28;19916;-70
2022/10/04 07:53:53;;;;;;;;;;;11.80;92.40;;;;;;5079766;28;20590;-71
2022/10/04 07:56:21;;;;;;;;;;;11.90;92.40;;;;;;5085758;28;19923;-70
2022/10/04 07:59:02;;;;;;;;;;;11.90;92.40;;;;;;5083090;28;20531;-70
2022/10/04 08:01:28;;;;;;;;;;;11.90;92.30;;;;;;5085074;28;20634;-71
2022/10/04 08:03:57;;;;;;;;;;;11.90;92.30;;;;;;5082000;28;20124;-70
2022/10/04 08:06:31;;;;;;;;;;;11.90;92.30;;;;;;5084316;28;20040;-71
2022/10/04 08:09:00;;;;;;;;;;;12.00;92.30;;;;;;5084704;28;20496;-71
2022/10/04 08:11:41;;;;;;;;;;;12.00;92.30;;;;;;5082358;28;19920;-70
2022/10/04 08:14:12;;;;;;;;;;;12.00;92.30;;;;;;5083840;28;20374;-70
2022/10/04 08:16:53;;;;;;;;;;;12.00;92.50;;;;;;5083940;28;19940;-71
2022/10/04 08:19:19;;;;;;;;;;;12.00;92.30;;;;;;5082096;28;19912;-70
2022/10/04 08:21:56;;;;;;;;;;;12.00;92.20;;;;;;5082759;28;19920;-70
2022/10/04 08:24:25;;;;;;;;;;;12.10;92.20;;;;;;5082130;28;19916;-71
2022/10/04 08:26:56;;;;;;;;;;;12.10;92.20;;;;;;5082975;28;19916;-71
2022/10/04 08:32:19;;;;;;;;;;;12.10;92.20;;;;;;5080298;28;19973;-70
2022/10/04 08:34:44;;;;;;;;;;;12.10;92.20;;;;;;5084805;28;19931;-70
2022/10/04 08:37:24;;;;;;;;;;;12.10;92.30;;;;;;5079468;28;19920;-70
2022/10/04 08:39:49;;;;;;;;;;;12.20;92.30;;;;;;5082638;28;19918;-70
2022/10/04 08:42:33;;;;;;;;;;;12.10;92.20;;;;;;5073807;28;20296;-70
2022/10/04 08:45:17;;;;;;;;;;;12.20;92.20;;;;;;5079865;28;19912;-71
2022/10/04 08:47:57;;;;;;;;;;;12.20;92.20;;;;;;5082438;28;19916;-70
2022/10/04 08:50:41;;;;;;;;;;;12.20;92.20;;;;;;5065203;28;19923;-71
2022/10/04 08:53:20;;;;;;;;;;;12.20;92.10;;;;;;5082219;28;19916;-71
2022/10/04 08:55:46;;;;;;;;;;;12.30;92.10;;;;;;5084570;28;20379;-70
2022/10/04 08:58:14;;;;;;;;;;;12.30;92.10;;;;;;5081963;28;19917;-70
2022/10/04 09:01:07;;;;;;;;;;;12.30;92.10;;;;;;5066188;28;19916;-70
2022/10/04 09:03:34;;;;;;;;;;;12.30;92.10;;;;;;5086179;28;19963;-70
2022/10/04 09:06:11;;;;;;;;;;;12.30;92.10;;;;;;5089243;28;19962;-71
2022/10/04 09:08:55;;;;;;;;;;;12.30;92.00;;;;;;5087159;28;19916;-70
2022/10/04 09:11:24;;;;;;;;;;;12.40;92.10;;;;;;5088806;28;19920;-70
2022/10/04 09:14:08;;;;;;;;;;;12.40;92.00;;;;;;5084512;28;19916;-72
2022/10/04 09:16:36;;;;;;;;;;;12.40;91.90;;;;;;5087865;28;19916;-70
2022/10/04 09:19:21;;;;;;;;;;;12.50;91.80;;;;;;5068768;28;19991;-71
2022/10/04 09:21:46;;;;;;;;;;;12.50;91.80;;;;;;5084443;28;19911;-70
2022/10/04 09:24:30;;;;;;;;;;;12.50;91.80;;;;;;5082337;28;20844;-70
2022/10/04 09:27:11;;;;;;;;;;;12.50;91.80;;;;;;5086865;28;19908;-71
2022/10/04 09:29:36;;;;;;;;;;;12.50;91.70;;;;;;5087631;28;19920;-70
2022/10/04 09:32:05;;;;;;;;;;;12.50;91.70;;;;;;5085238;28;19931;-70
2022/10/04 09:34:37;;;;;;;;;;;12.60;91.70;;;;;;5085212;28;19916;-70
2022/10/04 09:37:21;;;;;;;;;;;12.60;91.60;;;;;;5070390;28;19974;-70
2022/10/04 09:39:53;;;;;;;;;;;12.60;91.80;;;;;;5086426;28;19955;-71
2022/10/04 09:42:37;;;;;;;;;;;12.70;91.60;;;;;;5068181;28;20347;-70
2022/10/04 09:45:06;;;;;;;;;;;12.70;91.50;;;;;;5087080;28;20293;-71
2022/10/04 09:47:41;;;;;;;;;;;12.70;91.50;;;;;;5088061;28;20334;-70
2022/10/04 09:50:13;;;;;;;;;;;12.70;91.50;;;;;;5084399;28;19946;-70
2022/10/04 09:53:07;;;;;;;;;;;12.70;91.40;;;;;;5086326;28;20281;-70
2022/10/04 09:55:32;;;;;;;;;;;12.80;91.40;;;;;;5090799;28;19919;-71
2022/10/04 09:58:08;;;;;;;;;;;12.80;91.40;;;;;;5088290;28;19912;-70
2022/10/04 10:00:47;;;;;;;;;;;12.80;91.40;;;;;;5081699;28;19912;-70
2022/10/04 10:03:16;;;;;;;;;;;12.90;91.40;;;;;;5087942;28;19916;-70
2022/10/04 10:05:57;;;;;;;;;;;12.90;91.30;;;;;;5083111;28;19920;-70
2022/10/04 10:08:40;;;;;;;;;;;13.00;91.30;;;;;;5086346;28;19938;-70
2022/10/04 10:13:59;;;;;;;;;;;13.00;91.20;;;;;;5084556;28;19919;-71
2022/10/04 10:16:30;;;;;;;;;;;13.10;91.20;;;;;;5085281;28;20054;-70
2022/10/04 10:19:14;;;;;;;;;;;13.10;91.30;;;;;;5087121;28;19918;-70
2022/10/04 10:21:39;;;;;;;;;;;13.10;91.10;;;;;;5085359;28;20495;-71
2022/10/04 10:24:16;;;;;;;;;;;13.10;91.20;;;;;;5084468;28;19916;-70
2022/10/04 10:26:57;;;;;;;;;;;13.10;91.20;;;;;;5086913;28;20027;-70
2022/10/04 10:29:29;;;;;;;;;;;13.10;91.30;;;;;;5085170;28;19912;-70
2022/10/04 10:32:14;;;;;;;;;;;13.10;91.30;;;;;;5086554;28;19920;-70
2022/10/04 10:34:58;;;;;;;;;;;13.20;91.20;;;;;;5083641;28;20398;-69
2022/10/04 10:37:26;;;;;;;;;;;13.20;91.20;;;;;;5084596;28;19974;-70
2022/10/04 10:40:15;;;;;;;;;;;13.30;91.10;;;;;;5083013;28;19947;-70
2022/10/04 10:42:41;;;;;;;;;;;13.30;91.10;;;;;;5074055;28;20256;-70
2022/10/04 10:45:25;;;;;;;;;;;13.40;91.00;;;;;;5084815;28;19912;-70
2022/10/04 10:48:09;;;;;;;;;;;13.40;91.10;;;;;;5081218;28;19919;-70
2022/10/04 10:50:59;;;;;;;;;;;13.50;91.00;;;;;;5084374;28;20385;-70
2022/10/04 10:53:30;;;;;;;;;;;13.50;90.90;;;;;;5086032;28;19916;-70
2022/10/04 10:56:14;;;;;;;;;;;13.60;90.90;;;;;;5084713;28;19912;-70
2022/10/04 10:58:43;;;;;;;;;;;13.60;90.80;;;;;;5084369;28;19919;-69
2022/10/04 11:01:28;;;;;;;;;;;13.70;91.10;;;;;;5083102;28;19998;-69
2022/10/04 11:04:20;;;;;;;;;;;13.70;90.80;;;;;;5081761;28;19912;-70
2022/10/04 11:07:04;;;;;;;;;;;13.80;91.00;;;;;;5083082;28;20452;-70
2022/10/04 11:09:31;;;;;;;;;;;13.80;90.90;;;;;;5083176;28;19912;-69
2022/10/04 11:11:57;;;;;;;;;;;13.90;90.90;;;;;;5084075;28;20361;-70
2022/10/04 11:14:25;;;;;;;;;;;14.00;90.90;;;;;;5085641;28;19918;-70
2022/10/04 11:16:57;;;;;;;;;;;14.00;91.10;;;;;;5081025;28;19916;-70
2022/10/04 11:19:31;;;;;;;;;;;14.10;91.10;;;;;;5082458;28;19908;-70
2022/10/04 11:22:09;;;;;;;;;;;14.20;91.10;;;;;;5084166;28;20049;-70
2022/10/04 11:24:54;;;;;;;;;;;14.30;91.40;;;;;;5067292;28;20023;-71
2022/10/04 11:27:28;;;;;;;;;;;14.40;91.00;;;;;;5082010;28;19994;-70
2022/10/04 11:29:54;;;;;;;;;;;14.50;90.60;;;;;;5085386;28;19912;-70
2022/10/04 11:32:38;;;;;;;;;;;14.50;90.70;;;;;;5082164;28;19938;-71
2022/10/04 11:35:22;;;;;;;;;;;14.60;90.80;;;;;;5082608;28;20532;-71
2022/10/04 11:37:52;;;;;;;;;;;14.70;90.80;;;;;;5083660;28;20574;-70
2022/10/04 11:40:18;;;;;;;;;;;14.80;90.80;;;;;;5080284;28;19916;-71
2022/10/04 11:43:02;;;;;;;;;;;14.90;90.90;;;;;;5082483;28;19916;-71
2022/10/04 11:45:35;;;;;;;;;;;15.00;90.60;;;;;;5083124;28;19912;-71
2022/10/04 11:48:15;;;;;;;;;;;15.10;90.70;;;;;;5084126;28;19957;-71
2022/10/04 11:50:50;;;;;;;;;;;15.20;90.40;;;;;;5085031;28;19912;-71
2022/10/04 11:53:20;;;;;;;;;;;15.20;90.50;;;;;;5083747;28;19919;-71
2022/10/04 11:55:56;;;;;;;;;;;15.30;90.70;;;;;;5085490;28;19940;-71
2022/10/04 11:58:34;;;;;;;;;;;15.40;90.70;;;;;;5076567;28;19916;-71
2022/10/04 12:01:18;;;;;;;;;;;15.50;90.80;;;;;;5081729;28;20004;-71
2022/10/04 12:04:02;;;;;;;;;;;15.50;90.90;;;;;;5077856;28;19916;-71
2022/10/04 12:06:34;;;;;;;;;;;15.60;90.40;;;;;;5085659;28;19959;-71
2022/10/04 12:09:18;;;;;;;;;;;15.60;90.70;;;;;;5082488;28;19916;-71
2022/10/04 12:15:07;;;;;;;;;;;15.80;90.70;;;;;;5081104;28;19927;-70
2022/10/04 12:17:51;;;;;;;;;;;15.90;91.00;;;;;;5085473;28;19912;-71
2022/10/04 12:20:17;;;;;;;;;;;16.00;90.70;;;;;;5081524;28;19938;-71
2022/10/04 12:22:42;;;;;;;;;;;16.10;90.80;;;;;;5085611;28;19912;-71
2022/10/04 12:25:20;;;;;;;;;;;16.10;90.50;;;;;;5081250;28;19916;-71
2022/10/04 12:27:58;;;;;;;;;;;16.20;91.00;;;;;;5083110;28;19913;-71
2022/10/04 12:30:23;;;;;;;;;;;16.20;90.70;;;;;;5080323;28;20649;-71
2022/10/04 12:33:07;;;;;;;;;;;16.30;91.00;;;;;;5081981;28;19911;-71
2022/10/04 12:35:33;;;;;;;;;;;16.30;90.90;;;;;;5076700;28;19916;-70
2022/10/04 12:38:11;;;;;;;;;;;16.40;91.00;;;;;;5084743;28;19912;-71
2022/10/04 12:40:42;;;;;;;;;;;16.40;91.10;;;;;;5074576;28;19923;-72
2022/10/04 12:43:22;;;;;;;;;;;16.50;91.10;;;;;;5084844;28;19963;-71
2022/10/04 12:45:48;;;;;;;;;;;16.50;91.20;;;;;;5080814;28;20496;-71
2022/10/04 12:48:23;;;;;;;;;;;16.60;91.30;;;;;;5084553;28;19916;-71
2022/10/04 12:50:48;;;;;;;;;;;16.60;91.20;;;;;;5081751;28;19969;-71
2022/10/04 12:53:23;;;;;;;;;;;16.70;91.40;;;;;;5082378;28;19920;-71
2022/10/04 12:56:04;;;;;;;;;;;16.70;91.40;;;;;;5082379;28;19916;-71
2022/10/04 12:58:30;;;;;;;;;;;16.80;91.90;;;;;;5082686;28;19914;-71
2022/10/04 13:00:59;;;;;;;;;;;16.80;91.80;;;;;;5081857;28;19955;-71
2022/10/04 13:03:25;;;;;;;;;;;16.90;91.60;;;;;;5066613;28;19995;-71
2022/10/04 13:06:23;;;;;;;;;;;16.90;91.70;;;;;;5078219;28;19920;-71
2022/10/04 13:08:55;;;;;;;;;;;17.00;91.60;;;;;;5038545;28;19998;-71
2022/10/04 13:11:35;;;;;;;;;;;17.00;91.40;;;;;;5081395;28;19920;-71
2022/10/04 13:14:00;;;;;;;;;;;17.10;91.50;;;;;;5080228;28;19912;-70
2022/10/04 13:16:44;;;;;;;;;;;17.10;91.50;;;;;;5081715;28;19916;-71
2022/10/04 13:19:13;;;;;;;;;;;17.10;91.80;;;;;;5083818;28;20014;-71
2022/10/04 13:21:57;;;;;;;;;;;17.10;91.40;;;;;;5080675;28;19916;-71
2022/10/04 13:24:29;;;;;;;;;;;17.20;91.30;;;;;;5082403;28;19916;-71
2022/10/04 13:27:01;;;;;;;;;;;17.20;91.20;;;;;;5082470;28;19972;-71
2022/10/04 13:29:29;;;;;;;;;;;17.30;91.20;;;;;;5084310;28;19912;-71
2022/10/04 13:31:55;;;;;;;;;;;17.30;92.00;;;;;;5081909;28;19927;-71
2022/10/04 13:34:24;;;;;;;;;;;17.30;91.50;;;;;;5082858;28;19912;-71
2022/10/04 13:36:59;;;;;;;;;;;17.30;91.60;;;;;;5081284;28;20319;-71
2022/10/04 13:39:25;;;;;;;;;;;17.40;91.60;;;;;;5061707;28;20296;-71
2022/10/04 13:41:59;;;;;;;;;;;17.40;91.10;;;;;;5082205;28;19918;-71
2022/10/04 13:44:25;;;;;;;;;;;17.40;92.00;;;;;;5079623;28;19920;-71
2022/10/04 13:46:51;;;;;;;;;;;17.50;92.10;;;;;;5084870;28;20327;-71
2022/10/04 13:49:23;;;;;;;;;;;17.50;91.90;;;;;;5083865;28;19912;-71
2022/10/04 13:56:35;;;;;;;;;;;17.50;91.60;;;;;;5084043;28;19920;-71
2022/10/04 13:57:26;;;;;;;;;;;17.50;92.40;;;;;;5088229;28;19978;-71
2022/10/04 14:00:01;;;;;;;;;;;17.50;92.00;;;;;;5086353;28;19922;-71
2022/10/04 14:02:41;;;;;;;;;;;17.60;91.60;;;;;;5069427;28;20363;-71
2022/10/04 14:05:28;;;;;;;;;;;17.60;91.40;;;;;;5083327;28;19916;-70
2022/10/04 14:07:57;;;;;;;;;;;17.60;92.00;;;;;;5065929;28;19920;-71
2022/10/04 14:10:41;;;;;;;;;;;17.60;92.00;;;;;;5083768;28;19920;-71
2022/10/04 14:13:16;;;;;;;;;;;17.60;92.00;;;;;;5085178;28;19912;-71
2022/10/04 14:15:53;;;;;;;;;;;17.70;92.30;;;;;;5084218;28;19912;-71
2022/10/04 14:18:19;;;;;;;;;;;17.60;91.80;;;;;;5085545;28;19991;-72
2022/10/04 14:20:47;;;;;;;;;;;17.60;92.00;;;;;;5087130;28;20040;-71
2022/10/04 14:23:32;;;;;;;;;;;17.70;91.90;;;;;;5086252;28;19912;-70
2022/10/04 14:26:07;;;;;;;;;;;17.60;91.90;;;;;;5084626;28;20583;-70
2022/10/04 14:28:36;;;;;;;;;;;17.70;91.90;;;;;;5086565;28;19912;-70
2022/10/04 14:31:20;;;;;;;;;;;17.70;91.90;;;;;;5084387;28;19920;-71
2022/10/04 14:33:57;;;;;;;;;;;17.70;91.80;;;;;;5085385;28;20585;-72
2022/10/04 14:36:23;;;;;;;;;;;17.70;91.90;;;;;;5086867;28;20369;-71
2022/10/04 14:39:06;;;;;;;;;;;17.70;91.30;;;;;;5087725;28;19938;-71
2022/10/04 14:41:44;;;;;;;;;;;17.70;91.00;;;;;;5086057;28;19942;-70
2022/10/04 14:44:10;;;;;;;;;;;17.70;91.20;;;;;;5082728;28;19912;-71
2022/10/04 14:46:35;;;;;;;;;;;17.70;91.30;;;;;;5081959;28;19973;-71
2022/10/04 14:49:03;;;;;;;;;;;17.70;91.50;;;;;;5087622;28;19916;-71
2022/10/04 14:51:35;;;;;;;;;;;17.70;91.50;;;;;;5080911;28;20010;-71
2022/10/04 14:54:06;;;;;;;;;;;17.80;91.50;;;;;;5086558;28;20663;-70
2022/10/04 14:56:32;;;;;;;;;;;17.80;91.60;;;;;;5084292;28;19912;-71
2022/10/04 14:58:57;;;;;;;;;;;17.80;91.30;;;;;;5086225;28;19916;-70
2022/10/04 15:01:24;;;;;;;;;;;17.70;91.00;;;;;;5080141;28;19920;-71
2022/10/04 15:04:12;;;;;;;;;;;17.70;90.80;;;;;;5086633;28;19912;-71